Flight Track Log - Related Links

Times and Time Zones

All times are in EDT time to prevent confusion due to time zone crossing. See the N36715 flight status page for this flight to view local times or setup timezone preferences in your user account.

Time Position Orientation Groundspeed Altitude Reporting Facility
EDT Latitude Longitude Course Direction KTS MPH feet Rate Location/Type
Thu 03:26:41 AM -29.5036 149.6693 95° East 17,300  Level Aus ATC (Calculated)
Thu 03:27:41 AM -29.5077 149.7290 97° East 17,300 -2,136 Level Aus ATC (Calculated)
Thu 03:29:00 AM -29.5163 149.8537 95° East  Level FlightAware Approximate
Thu 03:29:52 AM -29.5107 149.7559 95° East 254 292 10,500  Level Aus ATC (RADAR)
Thu 03:30:17 AM -29.5134 149.7840 96° East 225 259 11,400 2,300 Climbing Aus ATC (RADAR)
Thu 03:30:52 AM -29.5156 149.8248 94° East 221 254 12,800 2,278 Climbing Aus ATC (RADAR)
Thu 03:31:36 AM -29.5172 149.8787 92° East 226 260 14,400 2,051 Climbing Aus ATC (RADAR)
Thu 03:32:11 AM -29.5193 149.9213 93° East 230 265 15,500 1,976 Climbing Aus ATC (RADAR)
Thu 03:33:01 AM -29.5246 149.9787 96° East 223 257 17,200 1,760 Climbing Aus ATC (RADAR)
Thu 03:33:26 AM -29.5270 150.0095 95° East 229 264 17,700 1,600 Climbing Aus ATC (RADAR)
Thu 03:34:01 AM -29.5297 150.0558 94° East 242 278 18,800 1,650 Climbing Aus ATC (RADAR)
Thu 03:35:26 AM -29.5313 150.1653 91° East 235 270 21,000 1,486 Climbing Aus ATC (RADAR)
Thu 03:35:46 AM -29.5211 150.1880 63° Northeast 229 264 21,400 1,309 Climbing Aus ATC (RADAR)
Thu 03:36:21 AM -29.5038 150.2305 65° Northeast 242 278 22,200 1,371 Climbing Aus ATC (RADAR)
Thu 03:36:56 AM -29.4875 150.2735 66° East 251 289 23,000 686 Climbing Aus ATC (RADAR)
Thu 03:37:31 AM -29.4697 150.3186 66° East 267 307 23,000  Level Aus ATC (RADAR)
Thu 03:38:26 AM -29.4378 150.3998 66° East 305 351 23,000  Level Aus ATC (RADAR)
Thu 03:38:41 AM -29.4291 150.4220 66° East 307 353 23,000  Level Aus ATC (RADAR)
Thu 03:39:31 AM -29.3974 150.5025 66° East 328 377 23,000  Level Aus ATC (RADAR)
Thu 03:40:01 AM -29.3786 150.5499 66° East 326 375 23,000  Level Aus ATC (RADAR)
Thu 03:40:31 AM -29.3598 150.5979 66° East 329 379 23,000  Level Aus ATC (RADAR)
Thu 03:41:06 AM -29.3378 150.6534 66° East 330 380 23,000  Level Aus ATC (RADAR)
Thu 03:41:45 AM -29.3128 150.7168 66° East 328 377 23,000  Level Aus ATC (RADAR)
Thu 03:42:20 AM -29.2904 150.7729 65° Northeast 331 381 23,000  Level Aus ATC (RADAR)
Thu 03:43:10 AM -29.2592 150.8529 66° East 330 380 23,000  Level Aus ATC (RADAR)
Thu 03:43:30 AM -29.2461 150.8846 65° Northeast 331 381 23,000  Level Aus ATC (RADAR)
Thu 03:44:05 AM -29.2240 150.9407 66° East 331 381 23,000  Level Aus ATC (RADAR)
Thu 03:45:00 AM -29.1891 151.0287 66° East 331 381 23,000  Level Aus ATC (RADAR)
Thu 03:45:15 AM -29.1797 151.0527 66° East 331 381 23,000  Level Aus ATC (RADAR)
Thu 03:45:50 AM -29.1571 151.1089 65° Northeast 333 383 23,000  Level Aus ATC (RADAR)
Thu 03:46:40 AM -29.1250 151.1884 65° Northeast 332 382 23,000  Level Aus ATC (RADAR)
Thu 03:47:20 AM -29.0996 151.2524 66° East 331 381 23,000  Level Aus ATC (RADAR)
Thu 03:48:10 AM -29.0674 151.3318 65° Northeast 330 380 23,000  Level Aus ATC (RADAR)
Thu 03:48:35 AM -29.0515 151.3717 66° East 330 380 23,000  Level Aus ATC (RADAR)
Thu 03:49:10 AM -29.0291 151.4274 65° Northeast 330 380 23,000  Level Aus ATC (RADAR)
Thu 03:50:15 AM -28.9872 151.5307 65° Northeast 330 380 23,000  Level Aus ATC (RADAR)
Thu 03:50:30 AM -28.9777 151.5546 66° East 330 380 23,000  Level Aus ATC (RADAR)
Thu 03:51:05 AM -28.9551 151.6095 65° Northeast 328 377 23,000  Level Aus ATC (RADAR)
Thu 03:51:59 AM -28.9199 151.6962 65° Northeast 328 377 23,000  Level Aus ATC (RADAR)
Thu 03:52:34 AM -28.8976 151.7513 65° Northeast 327 376 23,000  Level Aus ATC (RADAR)
Thu 03:53:19 AM -28.8694 151.8205 65° Northeast 319 367 23,000  Level Aus ATC (RADAR)
Thu 03:53:44 AM -28.8540 151.8585 65° Northeast 315 362 23,000  Level Aus ATC (RADAR)
Thu 03:54:19 AM -28.8325 151.9115 65° Northeast 314 361 23,000  Level Aus ATC (RADAR)
Thu 03:55:24 AM -28.7926 152.0104 65° Northeast 316 364 23,000  Level Aus ATC (RADAR)
Thu 03:55:39 AM -28.7831 152.0329 64° Northeast 317 365 23,000  Level Aus ATC (RADAR)
Thu 03:56:19 AM -28.7582 152.0940 65° Northeast 317 365 23,000  Level Aus ATC (RADAR)
Thu 03:57:04 AM -28.7300 152.1629 65° Northeast 319 367 23,000  Level Aus ATC (RADAR)
Thu 03:57:44 AM -28.7046 152.2237 65° Northeast 318 366 23,000  Level Aus ATC (RADAR)
Thu 03:58:34 AM -28.6731 152.2995 65° Northeast 317 365 23,000  Level Aus ATC (RADAR)
Thu 03:58:59 AM -28.6575 152.3375 65° Northeast 317 365 23,000 -989 Level Aus ATC (RADAR)
Thu 04:00:05 AM -28.6145 152.4406 65° Northeast 338 389 21,500 -1,642 Descending Aus ATC (RADAR)
Thu 04:00:34 AM -28.5925 152.4926 64° Northeast 357 411 20,400 -2,111 Descending Aus ATC (RADAR)
Thu 04:00:59 AM -28.5739 152.5368 64° Northeast 366 421 19,600 -2,123 Descending Aus ATC (RADAR)
Thu 04:01:39 AM -28.5439 152.6091 65° Northeast 374 430 18,100 -2,160 Descending Aus ATC (RADAR)
Thu 04:02:14 AM -28.5174 152.6721 64° Northeast 374 430 16,900 -2,057 Descending Aus ATC (RADAR)
Thu 04:02:49 AM -28.4926 152.7324 65° Northeast 357 411 15,700 -1,976 Descending Aus ATC (RADAR)
Thu 04:03:39 AM -28.4595 152.8132 65° Northeast 332 382 14,100 -1,879 Descending Aus ATC (RADAR)
Thu 04:04:28 AM -28.4270 152.8890 64° Northeast 314 361 12,600 -1,615 Descending Aus ATC (RADAR)
Thu 04:05:23 AM -28.3941 152.9679 65° Northeast 295 339 11,300 -1,412 Descending Aus ATC (RADAR)
Thu 04:05:53 AM -28.3765 153.0100 65° Northeast 293 337 10,600 -1,292 Descending Aus ATC (RADAR)
Thu 04:06:28 AM -28.3556 153.0599 65° Northeast 296 341 9,900 -1,275 Descending Aus ATC (RADAR)
Thu 04:07:13 AM -28.3295 153.1228 65° Northeast 288 331 8,900 -1,341 Descending Aus ATC (RADAR)
Thu 04:07:53 AM -28.3076 153.1769 65° Northeast 278 320 8,000 -1,200 Descending Aus ATC (RADAR)
Thu 04:08:38 AM -28.2828 153.2347 64° Northeast 269 310 7,200 -1,120 Descending Aus ATC (RADAR)
Thu 04:09:08 AM -28.2666 153.2732 64° Northeast 267 307 6,600 -1,300 Descending Aus ATC (RADAR)
Thu 04:09:38 AM -28.2510 153.3105 65° Northeast 260 299 5,900 -1,011 Descending Aus ATC (RADAR)
Thu 04:10:43 AM -28.2187 153.3864 64° Northeast 240 276 5,000 -675 Descending Aus ATC (RADAR)
Thu 04:10:58 AM -28.2116 153.4037 65° Northeast 239 275 5,000  Level Aus ATC (RADAR)
Thu 04:11:38 AM -28.1937 153.4456 64° Northeast 215 247 5,000  Level Aus ATC (RADAR)
Thu 04:12:28 AM -28.1750 153.4905 65° Northeast 188 216 5,000  Level Aus ATC (RADAR)
Thu 04:13:08 AM -28.1597 153.5267 64° Northeast 191 220 5,000  Level Aus ATC (RADAR)

Login

Don't have an account? Register now (free) for customized features, flight alerts, and more!